createdAt,value
2018-06-01T00:00:30.607Z,20.20
2018-06-01T00:02:58.134Z,20.20
2018-06-01T00:05:25.674Z,20.30
2018-06-01T00:07:53.980Z,20.70
2018-06-01T00:10:21.518Z,20.70
2018-06-01T00:15:15.760Z,20.80
2018-06-01T00:17:43.282Z,20.70
2018-06-01T00:20:10.791Z,20.80
2018-06-01T00:22:38.325Z,20.90
2018-06-01T00:25:06.615Z,20.90
2018-06-01T00:27:34.161Z,20.80
2018-06-01T00:30:02.439Z,21.00
2018-06-01T00:32:30.292Z,20.90
2018-06-01T00:34:57.813Z,21.00
2018-06-01T00:37:25.335Z,21.00
2018-06-01T00:39:52.860Z,21.10
2018-06-01T00:42:20.371Z,21.20
2018-06-01T00:44:48.649Z,21.10
2018-06-01T00:47:16.159Z,21.10
2018-06-01T00:49:43.681Z,21.10
2018-06-01T00:52:12.010Z,21.10
2018-06-01T00:54:52.875Z,21.10
2018-06-01T00:57:20.433Z,21.10
2018-06-01T00:59:47.956Z,21.20
2018-06-01T01:02:16.296Z,21.20
2018-06-01T01:04:44.583Z,21.00
2018-06-01T01:07:12.882Z,21.00
2018-06-01T01:09:40.438Z,21.00
2018-06-01T01:12:07.969Z,21.10
2018-06-01T01:14:35.469Z,21.10
2018-06-01T01:17:02.994Z,21.10
2018-06-01T01:19:30.514Z,21.00
2018-06-01T01:21:58.795Z,20.90
2018-06-01T01:24:26.328Z,20.80
2018-06-01T01:26:54.738Z,20.90
2018-06-01T01:29:23.041Z,21.10
2018-06-01T01:31:50.585Z,21.10
2018-06-01T01:34:18.884Z,21.10
2018-06-01T01:36:46.728Z,21.00
2018-06-01T01:39:15.100Z,21.10
2018-06-01T01:41:43.395Z,20.90
2018-06-01T01:44:11.724Z,20.80
2018-06-01T01:46:39.631Z,20.80
2018-06-01T01:49:07.140Z,20.70
2018-06-01T01:51:34.664Z,20.70
2018-06-01T01:54:02.207Z,20.60
2018-06-01T01:56:29.728Z,20.60
2018-06-01T01:58:58.056Z,20.50
2018-06-01T02:01:25.629Z,20.50
2018-06-01T02:03:53.210Z,20.60
2018-06-01T02:06:20.721Z,20.70
2018-06-01T02:08:48.271Z,20.90
2018-06-01T02:11:15.798Z,20.70
2018-06-01T02:13:43.341Z,20.60
2018-06-01T02:16:11.655Z,20.80
2018-06-01T02:18:39.177Z,20.80
2018-06-01T02:21:06.715Z,20.80
2018-06-01T02:23:34.242Z,20.60
2018-06-01T02:26:01.741Z,20.70
2018-06-01T02:28:29.271Z,20.70
2018-06-01T02:30:57.556Z,20.80
2018-06-01T02:33:25.861Z,20.70
2018-06-01T02:35:53.553Z,20.70
2018-06-01T02:38:21.311Z,20.70
2018-06-01T02:40:49.067Z,20.70
2018-06-01T02:43:16.817Z,20.70
2018-06-01T02:45:45.356Z,20.80
2018-06-01T02:48:13.091Z,20.80
2018-06-01T02:50:40.623Z,20.70
2018-06-01T02:53:08.878Z,20.50
2018-06-01T02:55:36.384Z,20.50
2018-06-01T02:58:04.677Z,20.50
2018-06-01T03:00:32.245Z,20.50
2018-06-01T03:02:59.761Z,20.40
2018-06-01T03:05:28.049Z,20.40
2018-06-01T03:07:55.569Z,20.30
2018-06-01T03:10:23.121Z,20.30
2018-06-01T03:12:51.532Z,20.30
2018-06-01T03:15:19.354Z,20.50
2018-06-01T03:17:46.896Z,20.50
2018-06-01T03:20:15.178Z,20.60
2018-06-01T03:22:43.502Z,20.60
2018-06-01T03:25:11.018Z,20.60
2018-06-01T03:27:39.620Z,20.60
2018-06-01T03:30:09.681Z,20.60
2018-06-01T03:32:37.498Z,20.60
2018-06-01T03:35:05.035Z,20.60
2018-06-01T03:37:32.555Z,20.60
2018-06-01T03:40:00.871Z,20.60
2018-06-01T03:42:28.374Z,20.60
2018-06-01T03:44:56.690Z,20.70
2018-06-01T03:47:24.214Z,20.60
2018-06-01T03:49:52.653Z,20.60
2018-06-01T03:52:21.410Z,20.60
2018-06-01T03:54:49.701Z,20.10
2018-06-01T03:57:17.244Z,20.10
2018-06-01T03:59:45.524Z,19.50
2018-06-01T04:02:13.832Z,19.60
2018-06-01T04:04:41.346Z,19.60
2018-06-01T04:07:08.878Z,19.70
2018-06-01T04:09:36.451Z,19.70
2018-06-01T04:12:04.013Z,19.90
2018-06-01T04:14:32.314Z,19.90
2018-06-01T04:16:59.853Z,19.90
2018-06-01T04:19:27.372Z,19.90
2018-06-01T04:21:55.673Z,20.20
2018-06-01T04:24:23.201Z,20.10
2018-06-01T04:26:50.725Z,20.10
2018-06-01T04:29:18.280Z,20.20
2018-06-01T04:31:46.616Z,20.20
2018-06-01T04:34:14.955Z,20.30
2018-06-01T04:36:42.503Z,20.20
2018-06-01T04:39:10.035Z,20.30
2018-06-01T04:41:38.311Z,20.30
2018-06-01T04:44:06.610Z,20.10
2018-06-01T04:46:34.138Z,20.10
2018-06-01T04:49:01.892Z,20.10
2018-06-01T04:51:29.424Z,20.10
2018-06-01T04:53:56.952Z,20.10
2018-06-01T04:56:24.491Z,20.30
2018-06-01T04:58:52.023Z,20.30
2018-06-01T05:01:19.536Z,20.30
2018-06-01T05:03:47.074Z,20.20
2018-06-01T05:06:14.593Z,20.30
2018-06-01T05:08:42.117Z,20.30
2018-06-01T05:11:09.635Z,20.10
2018-06-01T05:13:37.166Z,20.10
2018-06-01T05:16:04.709Z,20.20
2018-06-01T05:18:32.249Z,20.20
2018-06-01T05:20:59.771Z,20.00
2018-06-01T05:23:27.330Z,20.00
2018-06-01T05:25:55.616Z,20.20
2018-06-01T05:28:23.932Z,20.30
2018-06-01T05:30:51.440Z,20.30
2018-06-01T05:33:19.716Z,20.40
2018-06-01T05:35:47.270Z,20.40
2018-06-01T05:38:14.782Z,20.40
2018-06-01T05:40:42.310Z,20.20
2018-06-01T05:43:10.618Z,20.10
2018-06-01T05:45:38.125Z,20.10
2018-06-01T05:48:05.647Z,20.30
2018-06-01T05:50:33.192Z,20.40
2018-06-01T05:53:00.733Z,20.10
2018-06-01T05:55:28.253Z,20.20
2018-06-01T05:57:55.782Z,20.30
2018-06-01T06:00:24.071Z,20.10
2018-06-01T06:02:51.652Z,20.10
2018-06-01T06:05:19.180Z,20.30
2018-06-01T06:07:47.474Z,20.30
2018-06-01T06:10:15.771Z,20.40
2018-06-01T06:12:43.353Z,20.40
2018-06-01T06:15:10.908Z,20.40
2018-06-01T06:17:38.446Z,20.20
2018-06-01T06:20:06.739Z,20.30
2018-06-01T06:22:35.042Z,20.40
2018-06-01T06:25:03.821Z,20.40
2018-06-01T06:27:31.355Z,20.60
2018-06-01T06:30:00.385Z,20.50
2018-06-01T06:32:27.896Z,20.50
2018-06-01T06:34:55.409Z,20.60
2018-06-01T06:37:23.070Z,20.60
2018-06-01T06:39:50.621Z,20.70
2018-06-01T06:42:18.924Z,20.60
2018-06-01T06:44:46.465Z,20.60
2018-06-01T06:47:14.740Z,20.60
2018-06-01T06:49:43.024Z,20.80
2018-06-01T06:52:11.299Z,21.00
2018-06-01T06:54:39.602Z,21.00
2018-06-01T06:57:07.895Z,20.90
2018-06-01T06:59:35.419Z,20.90
2018-06-01T07:02:02.968Z,21.00
2018-06-01T07:04:30.509Z,21.10
2018-06-01T07:06:58.046Z,21.10
2018-06-01T07:09:25.591Z,21.10
2018-06-01T07:11:53.881Z,21.10
2018-06-01T07:14:21.410Z,21.10
2018-06-01T07:16:48.925Z,21.20
2018-06-01T07:19:17.064Z,21.10
2018-06-01T07:21:45.343Z,21.30
2018-06-01T07:24:13.667Z,21.40
2018-06-01T07:26:41.255Z,21.40
2018-06-01T07:29:08.840Z,21.20
2018-06-01T07:31:36.508Z,21.30
2018-06-01T07:34:04.038Z,21.40
2018-06-01T07:36:31.549Z,21.30
2018-06-01T07:38:59.875Z,21.50
2018-06-01T07:41:27.403Z,21.40
2018-06-01T07:43:54.948Z,21.30
2018-06-01T07:46:22.492Z,21.30
2018-06-01T07:48:50.040Z,21.40
2018-06-01T07:51:17.595Z,21.40
2018-06-01T07:53:45.155Z,21.50
2018-06-01T07:56:12.662Z,21.40
2018-06-01T07:58:40.180Z,21.50
2018-06-01T08:01:07.730Z,21.20
2018-06-01T08:03:35.550Z,21.40
2018-06-01T08:06:03.069Z,21.40
2018-06-01T08:08:30.627Z,21.50
2018-06-01T08:10:58.179Z,21.60
2018-06-01T08:13:26.529Z,21.60
2018-06-01T08:15:54.067Z,21.60
2018-06-01T08:18:21.575Z,21.60
2018-06-01T08:20:49.870Z,21.70
2018-06-01T08:23:18.159Z,21.80
2018-06-01T08:25:45.692Z,21.80
2018-06-01T08:28:13.228Z,22.00
2018-06-01T08:30:40.729Z,22.10
2018-06-01T08:33:09.017Z,22.00
2018-06-01T08:35:37.321Z,22.10
2018-06-01T08:38:04.874Z,22.00
2018-06-01T08:40:32.386Z,22.20
2018-06-01T08:42:59.937Z,22.20
2018-06-01T08:45:27.491Z,22.00
2018-06-01T08:47:55.053Z,22.20
2018-06-01T08:50:22.592Z,22.40
2018-06-01T08:52:50.150Z,22.40
2018-06-01T08:55:18.430Z,22.30
2018-06-01T08:57:46.735Z,22.40
2018-06-01T09:00:14.234Z,22.30
2018-06-01T09:02:41.785Z,22.20
2018-06-01T09:05:09.322Z,22.30
2018-06-01T09:07:36.866Z,22.10
2018-06-01T09:10:05.232Z,22.30
2018-06-01T09:12:32.677Z,22.30
2018-06-01T09:15:01.014Z,22.40
2018-06-01T09:17:28.541Z,22.40
2018-06-01T09:19:57.683Z,22.40
2018-06-01T09:22:25.972Z,22.50
2018-06-01T09:24:53.496Z,22.50
2018-06-01T09:27:21.764Z,22.20
2018-06-01T09:29:50.884Z,22.20
2018-06-01T09:32:18.692Z,22.20
2018-06-01T09:34:46.231Z,22.10
2018-06-01T09:37:13.740Z,22.00
2018-06-01T09:39:41.300Z,22.20
2018-06-01T09:42:08.850Z,22.40
2018-06-01T09:44:36.389Z,22.50
2018-06-01T09:47:04.003Z,22.50
2018-06-01T09:49:31.518Z,22.50
2018-06-01T09:51:59.096Z,22.40
2018-06-01T09:54:27.245Z,22.60
2018-06-01T09:56:54.792Z,22.40
2018-06-01T09:59:23.324Z,22.60
2018-06-01T10:01:50.836Z,22.60
2018-06-01T10:04:18.360Z,22.60
2018-06-01T10:06:45.882Z,22.70
2018-06-01T10:09:13.411Z,22.70
2018-06-01T10:11:40.935Z,22.60
2018-06-01T10:14:08.466Z,22.40
2018-06-01T10:16:36.733Z,22.40
2018-06-01T10:19:05.017Z,22.50
2018-06-01T10:21:33.311Z,22.60
2018-06-01T10:24:01.129Z,22.60
2018-06-01T10:26:28.687Z,22.60
2018-06-01T10:28:56.214Z,22.70
2018-06-01T10:31:24.502Z,22.70
2018-06-01T10:33:52.051Z,22.70
2018-06-01T10:36:20.339Z,22.60
2018-06-01T10:38:47.858Z,22.60
2018-06-01T10:41:15.418Z,22.40
2018-06-01T10:43:43.759Z,22.60
2018-06-01T10:46:11.487Z,22.60
2018-06-01T10:48:39.027Z,22.60
2018-06-01T10:51:06.579Z,22.60
2018-06-01T10:53:34.106Z,22.70
2018-06-01T10:56:01.669Z,22.70
2018-06-01T10:58:29.214Z,22.50
2018-06-01T11:00:57.519Z,22.50
2018-06-01T11:03:25.080Z,22.40
2018-06-01T11:05:52.683Z,22.30
2018-06-01T11:08:20.222Z,22.40
2018-06-01T11:10:48.551Z,22.60
2018-06-01T11:13:16.329Z,22.70
2018-06-01T11:15:44.631Z,21.80
2018-06-01T11:18:12.943Z,21.80
2018-06-01T11:20:40.531Z,21.80
2018-06-01T11:23:08.069Z,21.70
2018-06-01T11:25:35.632Z,21.10
2018-06-01T11:28:03.142Z,20.90
2018-06-01T11:30:30.677Z,21.00
2018-06-01T11:33:11.727Z,21.20
2018-06-01T11:35:39.528Z,21.10
2018-06-01T11:38:07.055Z,21.00
2018-06-01T11:40:34.608Z,20.90
2018-06-01T11:43:02.453Z,20.70
2018-06-01T11:45:30.026Z,20.70
2018-06-01T11:47:58.371Z,20.70
2018-06-01T11:50:25.904Z,20.60
2018-06-01T11:52:53.416Z,20.80
2018-06-01T11:55:30.893Z,20.70
2018-06-01T11:57:58.400Z,20.50
2018-06-01T12:00:25.948Z,20.50
2018-06-01T12:02:54.240Z,20.40
2018-06-01T12:05:22.553Z,20.30
2018-06-01T12:07:50.367Z,20.30
2018-06-01T12:10:17.891Z,20.30
2018-06-01T12:12:45.452Z,20.30
2018-06-01T12:15:12.977Z,20.00
2018-06-01T12:17:41.307Z,20.10
2018-06-01T12:20:08.830Z,20.10
2018-06-01T12:22:37.240Z,20.10
2018-06-01T12:25:04.799Z,20.00
2018-06-01T12:27:32.308Z,20.00
2018-06-01T12:29:59.902Z,20.00
2018-06-01T12:32:28.186Z,19.60
2018-06-01T12:34:56.475Z,19.70
2018-06-01T12:37:24.764Z,20.00
2018-06-01T12:39:52.289Z,20.00
2018-06-01T12:42:19.817Z,20.10
2018-06-01T12:44:47.390Z,20.00
2018-06-01T12:47:15.705Z,20.00
2018-06-01T12:49:43.986Z,19.80
2018-06-01T12:52:11.521Z,19.70
2018-06-01T12:54:40.115Z,19.70
2018-06-01T12:57:07.659Z,19.70
2018-06-01T12:59:35.189Z,19.60
2018-06-01T13:02:03.044Z,19.60
2018-06-01T13:04:31.389Z,19.60
2018-06-01T13:06:58.960Z,19.60
2018-06-01T13:09:26.484Z,19.70
2018-06-01T13:11:54.017Z,19.50
2018-06-01T13:14:21.815Z,19.40
2018-06-01T13:16:49.362Z,19.40
2018-06-01T13:19:17.654Z,19.10
2018-06-01T13:21:45.177Z,19.10
2018-06-01T13:24:13.475Z,19.10
2018-06-01T13:26:41.747Z,19.10
2018-06-01T13:29:10.083Z,19.00
2018-06-01T13:31:37.600Z,19.00
2018-06-01T13:34:05.405Z,19.20
2018-06-01T13:36:32.908Z,19.50
2018-06-01T13:39:00.453Z,19.10
2018-06-01T13:41:27.995Z,19.00
2018-06-01T13:43:55.528Z,19.10
2018-06-01T13:46:23.803Z,18.90
2018-06-01T13:48:52.117Z,19.20
2018-06-01T13:51:19.646Z,19.20
2018-06-01T13:53:47.933Z,19.20
2018-06-01T13:56:15.657Z,19.20
2018-06-01T13:58:43.170Z,19.20
2018-06-01T14:01:11.466Z,18.90
2018-06-01T14:03:39.028Z,18.90
2018-06-01T14:06:06.603Z,19.00
2018-06-01T14:08:34.142Z,19.10
2018-06-01T14:11:01.975Z,19.10
2018-06-01T14:13:29.504Z,19.40
2018-06-01T14:15:57.323Z,19.10
2018-06-01T14:18:25.619Z,18.90
2018-06-01T14:20:53.909Z,18.80
2018-06-01T14:23:22.263Z,18.80
2018-06-01T14:25:49.796Z,18.80
2018-06-01T14:28:17.865Z,19.10
2018-06-01T14:30:45.433Z,19.10
2018-06-01T14:33:12.943Z,19.00
2018-06-01T14:35:41.240Z,19.10
2018-06-01T14:38:09.535Z,19.00
2018-06-01T14:40:37.123Z,18.90
2018-06-01T14:43:04.606Z,19.10
2018-06-01T14:45:32.938Z,18.90
2018-06-01T14:48:01.260Z,18.90
2018-06-01T14:50:28.781Z,18.90
2018-06-01T14:52:56.329Z,18.90
2018-06-01T14:55:24.667Z,19.00
2018-06-01T14:57:52.970Z,19.00
2018-06-01T15:00:20.493Z,18.90
2018-06-01T15:02:47.999Z,19.00
2018-06-01T15:05:15.551Z,18.90
2018-06-01T15:07:43.068Z,18.80
2018-06-01T15:10:12.410Z,18.80
2018-06-01T15:12:39.937Z,18.90
2018-06-01T15:15:07.495Z,18.80
2018-06-01T15:17:35.035Z,18.60
2018-06-01T15:20:02.540Z,18.50
2018-06-01T15:22:30.059Z,18.50
2018-06-01T15:24:57.577Z,18.40
2018-06-01T15:27:25.120Z,18.40
2018-06-01T15:29:52.666Z,18.30
2018-06-01T15:32:20.186Z,18.40
2018-06-01T15:34:47.724Z,18.30
2018-06-01T15:37:15.263Z,18.20
2018-06-01T15:39:42.789Z,18.20
2018-06-01T15:42:10.415Z,18.30
2018-06-01T15:44:37.940Z,18.40
2018-06-01T15:47:06.236Z,18.20
2018-06-01T15:49:33.794Z,18.20
2018-06-01T15:52:01.339Z,18.30
2018-06-01T15:54:28.850Z,18.60
2018-06-01T15:56:56.379Z,18.70
2018-06-01T15:59:24.677Z,18.40
2018-06-01T16:01:52.966Z,18.30
2018-06-01T16:04:20.483Z,18.30
2018-06-01T16:06:48.249Z,18.40
2018-06-01T16:09:15.791Z,18.50
2018-06-01T16:11:43.365Z,18.20
2018-06-01T16:14:10.884Z,18.20
2018-06-01T16:16:38.412Z,18.20
2018-06-01T16:19:05.960Z,18.30
2018-06-01T16:21:33.469Z,18.30
2018-06-01T16:24:01.745Z,18.20
2018-06-01T16:26:30.046Z,18.20
2018-06-01T16:28:57.600Z,18.20
2018-06-01T16:31:25.483Z,18.30
2018-06-01T16:33:53.748Z,18.40
2018-06-01T16:36:21.327Z,18.40
2018-06-01T16:38:48.872Z,18.30
2018-06-01T16:41:17.329Z,18.20
2018-06-01T16:43:44.862Z,18.20
2018-06-01T16:46:12.674Z,18.10
2018-06-01T16:48:40.233Z,18.30
2018-06-01T16:51:07.802Z,18.30
2018-06-01T16:53:36.141Z,18.30
2018-06-01T16:56:03.679Z,18.30
2018-06-01T16:58:31.212Z,18.40
2018-06-01T17:00:58.760Z,18.30
2018-06-01T17:03:26.270Z,18.40
2018-06-01T17:05:53.815Z,18.20
2018-06-01T17:08:22.102Z,18.20
2018-06-01T17:10:49.667Z,18.20
2018-06-01T17:13:17.202Z,18.00
2018-06-01T17:15:44.707Z,18.20
2018-06-01T17:18:12.529Z,18.30
2018-06-01T17:20:40.059Z,18.30
2018-06-01T17:23:07.587Z,18.20
2018-06-01T17:25:35.846Z,18.20
2018-06-01T17:28:04.436Z,17.90
2018-06-01T17:30:31.974Z,18.00
2018-06-01T17:32:59.497Z,18.10
2018-06-01T17:35:27.013Z,18.00
2018-06-01T17:37:54.563Z,17.70
2018-06-01T17:40:22.119Z,18.10
2018-06-01T17:42:49.759Z,18.30
2018-06-01T17:45:17.257Z,18.50
2018-06-01T17:47:45.197Z,18.30
2018-06-01T17:50:12.730Z,18.30
2018-06-01T17:52:41.004Z,18.10
2018-06-01T17:55:09.334Z,17.70
2018-06-01T17:57:36.876Z,17.60
2018-06-01T18:00:05.234Z,17.50
2018-06-01T18:02:33.525Z,17.60
2018-06-01T18:05:01.849Z,17.70
2018-06-01T18:07:29.356Z,17.70
2018-06-01T18:09:57.704Z,17.70
2018-06-01T18:12:25.210Z,17.70
2018-06-01T18:14:52.725Z,17.90
2018-06-01T18:17:20.284Z,17.80
2018-06-01T18:19:47.848Z,18.00
2018-06-01T18:22:16.206Z,17.90
2018-06-01T18:24:43.726Z,17.80
2018-06-01T18:27:11.341Z,17.70
2018-06-01T18:29:38.901Z,17.70
2018-06-01T18:32:06.473Z,17.70
2018-06-01T18:34:34.002Z,17.80
2018-06-01T18:37:02.322Z,17.70
2018-06-01T18:39:29.828Z,17.70
2018-06-01T18:41:57.380Z,17.80
2018-06-01T18:44:24.877Z,17.90
2018-06-01T18:46:53.182Z,17.70
2018-06-01T18:49:20.699Z,17.70
2018-06-01T18:51:48.242Z,17.60
2018-06-01T18:54:15.797Z,17.50
2018-06-01T18:56:43.325Z,17.60
2018-06-01T18:59:10.840Z,17.70
2018-06-01T19:01:38.413Z,17.50
2018-06-01T19:04:06.038Z,17.40
2018-06-01T19:06:33.573Z,17.20
2018-06-01T19:09:01.101Z,17.30
2018-06-01T19:11:28.639Z,17.40
2018-06-01T19:13:56.177Z,17.50
2018-06-01T19:16:24.456Z,17.20
2018-06-01T19:18:52.735Z,16.90
2018-06-01T19:21:21.000Z,16.80
2018-06-01T19:23:49.297Z,16.90
2018-06-01T19:26:16.979Z,16.90
2018-06-01T19:28:44.511Z,16.90
2018-06-01T19:31:12.045Z,16.80
2018-06-01T19:33:39.596Z,16.80
2018-06-01T19:36:07.124Z,16.90
2018-06-01T19:38:34.651Z,16.60
2018-06-01T19:41:02.438Z,16.40
2018-06-01T19:43:30.729Z,16.60
2018-06-01T19:45:59.016Z,16.60
2018-06-01T19:48:26.524Z,16.50
2018-06-01T19:50:54.039Z,16.60
2018-06-01T19:53:22.314Z,16.50
2018-06-01T19:55:50.621Z,16.60
2018-06-01T19:58:18.125Z,16.50
2018-06-01T20:00:45.647Z,16.60
2018-06-01T20:03:13.181Z,16.40
2018-06-01T20:05:41.537Z,16.20
2018-06-01T20:08:09.879Z,16.30
2018-06-01T20:10:37.420Z,16.30
2018-06-01T20:13:05.012Z,16.30
2018-06-01T20:15:33.283Z,16.40
2018-06-01T20:18:01.159Z,16.40
2018-06-01T20:20:28.692Z,16.60
2018-06-01T20:22:56.274Z,16.50
2018-06-01T20:25:23.801Z,16.60
2018-06-01T20:27:51.320Z,16.30
2018-06-01T20:30:18.849Z,16.40
2018-06-01T20:32:46.409Z,16.40
2018-06-01T20:35:13.947Z,16.50
2018-06-01T20:37:41.456Z,16.70
2018-06-01T20:40:09.010Z,16.60
2018-06-01T20:42:36.547Z,16.70
2018-06-01T20:45:04.828Z,16.80
2018-06-01T20:47:32.350Z,16.80
2018-06-01T20:49:59.888Z,16.90
2018-06-01T20:52:27.692Z,16.90
2018-06-01T20:54:55.212Z,16.90
2018-06-01T20:57:23.497Z,16.80
2018-06-01T20:59:51.011Z,16.80
2018-06-01T21:02:18.524Z,16.80
2018-06-01T21:04:46.060Z,16.50
2018-06-01T21:07:14.368Z,16.60
2018-06-01T21:09:41.941Z,16.70
2018-06-01T21:12:09.455Z,16.60
2018-06-01T21:14:36.989Z,16.60
2018-06-01T21:17:04.479Z,16.60
2018-06-01T21:19:32.042Z,16.70
2018-06-01T21:21:59.555Z,16.60
2018-06-01T21:24:27.101Z,16.80
2018-06-01T21:26:55.405Z,16.70
2018-06-01T21:29:22.916Z,16.70
2018-06-01T21:31:50.454Z,16.70
2018-06-01T21:34:17.989Z,16.50
2018-06-01T21:36:45.518Z,16.40
2018-06-01T21:39:13.063Z,16.40
2018-06-01T21:41:40.591Z,16.40
2018-06-01T21:44:08.120Z,16.40
2018-06-01T21:46:36.394Z,16.40
2018-06-01T21:49:04.716Z,16.40
2018-06-01T21:51:32.253Z,16.40
2018-06-01T21:54:00.543Z,16.40
2018-06-01T21:56:28.059Z,16.40
2018-06-01T21:58:55.586Z,16.70
2018-06-01T22:01:23.100Z,16.60
2018-06-01T22:03:50.639Z,16.50
2018-06-01T22:06:18.181Z,16.70
2018-06-01T22:08:46.934Z,16.50
2018-06-01T22:11:15.230Z,16.80
2018-06-01T22:13:43.533Z,16.80
2018-06-01T22:16:11.363Z,16.80
2018-06-01T22:18:38.902Z,16.80
2018-06-01T22:21:06.446Z,16.70
2018-06-01T22:23:33.959Z,16.70
2018-06-01T22:26:02.466Z,16.70
2018-06-01T22:28:30.032Z,16.70
2018-06-01T22:30:57.535Z,16.50
2018-06-01T22:33:25.053Z,16.50
2018-06-01T22:35:53.346Z,16.70
2018-06-01T22:38:20.872Z,16.70
2018-06-01T22:40:49.210Z,16.80
2018-06-01T22:43:16.724Z,16.80
2018-06-01T22:45:45.027Z,16.80
2018-06-01T22:48:13.389Z,16.80
2018-06-01T22:50:41.660Z,16.70
2018-06-01T22:53:09.202Z,16.70
2018-06-01T22:55:36.724Z,16.60
2018-06-01T22:58:04.258Z,16.60
2018-06-01T23:00:32.828Z,16.50
2018-06-01T23:03:00.343Z,16.50
2018-06-01T23:05:27.861Z,16.70
2018-06-01T23:07:55.401Z,16.60
2018-06-01T23:10:22.957Z,16.50
2018-06-01T23:12:50.503Z,16.50
2018-06-01T23:15:18.010Z,16.60
2018-06-01T23:17:45.561Z,16.70
2018-06-01T23:20:13.069Z,16.70
2018-06-01T23:22:40.602Z,16.90
2018-06-01T23:25:08.152Z,16.80
2018-06-01T23:27:35.671Z,16.70
2018-06-01T23:30:03.189Z,16.80
2018-06-01T23:32:30.696Z,16.80
2018-06-01T23:34:58.216Z,16.70
2018-06-01T23:37:25.732Z,16.70
2018-06-01T23:39:53.229Z,16.60
2018-06-01T23:42:20.773Z,16.70
2018-06-01T23:44:48.333Z,16.70
2018-06-01T23:47:15.880Z,16.70
2018-06-01T23:49:43.438Z,16.80
2018-06-01T23:52:10.947Z,16.70
2018-06-01T23:54:38.741Z,16.70
2018-06-01T23:57:06.259Z,16.50
2018-06-01T23:59:33.768Z,16.50
